Latest Weather Observations for Walpeup RS

IDV60801

Issued at 8:02 pm EST Friday 22 May 2015 (issued every 30 minutes, with the page automatically refreshed every 10 minutes)

About weather observations | Map of weather stations | Latest weather observations for VIC | Other Formats
Station Details ID: 076064 Name: WALPEUP RESEARCH Lat: -35.12 Lon: 142.00 Height: 105.0 m
Data from the previous 72 hours. | See also: Recent months at Walpeup RS
Date/Time
EST
Temp
°C
App
Temp
°C
Dew
Point
Rel
Hum
%
Delta-T
°C
Wind Press
QNH
hPa
Press
MSL
hPa
Rain
since 9 am
mm
Dir
 
Spd
km/h
Gust
km/h
Spd
kts
Gust
kts
22/08:00pm 11.2 8.6 6.1 71 2.4 SSE 9 13 5 7 - - 0.0
22/07:30pm 12.1 9.2 6.4 68 2.7 SSE 11 15 6 8 - - 0.0
22/07:00pm 12.5 10.0 6.5 67 2.9 SSE 9 13 5 7 - - 0.0
22/06:30pm 12.7 10.2 6.7 67 2.9 S 9 11 5 6 - - 0.0
22/06:00pm 13.2 10.4 6.8 65 3.1 S 11 13 6 7 - - 0.0
22/05:30pm 14.2 11.0 6.8 61 3.6 S 13 19 7 10 - - 0.0
22/05:00pm 15.2 10.9 7.0 58 4.0 S 19 24 10 13 - - 0.0
22/04:30pm 15.8 10.9 6.8 55 4.4 S 22 30 12 16 - - 0.0
22/04:00pm 16.1 11.7 7.6 57 4.3 S 20 28 11 15 - - 0.0
22/03:30pm 16.2 11.8 7.4 56 4.4 S 20 26 11 14 - - 0.0
22/03:00pm 16.6 12.5 8.6 59 4.1 S 20 28 11 15 - - 0.0
22/02:30pm 15.9 11.6 7.9 59 4.0 S 20 30 11 16 - - 0.0
22/02:00pm 16.1 12.2 8.6 61 3.8 S 19 24 10 13 - - 0.0
22/01:30pm 15.7 11.5 8.4 62 3.7 S 20 30 11 16 - - 0.0
22/01:00pm 15.5 11.6 8.5 63 3.6 S 19 24 10 13 - - 0.0
22/12:30pm 15.2 11.0 8.4 64 3.5 SSE 20 32 11 17 - - 0.0
22/12:00pm 15.0 10.9 8.7 66 3.2 SSE 20 30 11 16 - - 0.0
22/11:30am 14.4 9.9 8.6 68 2.9 SSE 22 32 12 17 - - 0.0
22/11:00am 13.7 9.6 8.5 71 2.6 SSE 20 32 11 17 - - 0.0
22/10:30am 12.5 8.1 8.8 78 1.9 S 22 28 12 15 - - 0.0
22/10:00am 11.4 6.6 8.8 84 1.3 S 24 32 13 17 - - 0.0
22/09:30am 10.3 6.3 8.9 91 0.7 S 20 28 11 15 - - 0.0
22/09:00am 8.9 5.4 8.9 100 0.0 SSW 17 22 9 12 - - 0.2
22/08:30am 7.9 4.9 7.9 100 0.0 SSW 13 15 7 8 - - 0.2
22/08:00am 7.1 4.7 7.1 100 0.0 SSW 9 13 5 7 - - 0.2
22/07:30am 7.0 3.8 7.0 100 0.0 SSW 13 15 7 8 - - 0.2
22/07:00am 7.1 4.0 7.1 100 0.0 SSW 13 15 7 8 - - 0.2
22/06:30am 7.2 4.1 7.2 100 0.0 SSW 13 17 7 9 - - 0.2
22/06:00am 7.3 3.8 7.3 100 0.0 SSW 15 19 8 10 - - 0.2
22/05:30am 7.4 4.3 7.4 100 0.0 SSW 13 17 7 9 - - 0.2
22/05:00am 7.7 5.1 7.7 100 0.0 SSW 11 15 6 8 - - 0.2
22/04:30am 8.1 5.2 8.1 100 0.0 SSW 13 17 7 9 - - 0.2
22/04:00am 8.1 4.8 8.1 100 0.0 SSW 15 19 8 10 - - 0.2
22/03:30am 8.3 4.3 8.3 100 0.0 SSW 19 24 10 13 - - 0.2
22/03:00am 8.4 4.4 8.4 100 0.0 SSW 19 24 10 13 - - 0.2
22/02:30am 8.2 4.6 8.2 100 0.0 SSW 17 20 9 11 - - 0.2
22/02:00am 8.1 5.2 8.1 100 0.0 SSW 13 19 7 10 - - 0.0
22/01:30am 8.2 5.3 8.1 99 0.0 SW 13 15 7 8 - - 0.0
22/01:00am 8.4 5.9 8.3 99 0.0 SW 11 13 6 7 - - 0.0
22/12:30am 8.9 6.4 8.0 94 0.4 SSW 11 17 6 9 - - 0.0
22/12:00am 9.5 6.5 7.8 89 0.8 SW 13 17 7 9 - - 0.0
 
Date/Time
EST
Temp
°C
App
Temp
°C
Dew
Point
Rel
Hum
%
Delta-T
°C
Wind Press
QNH
hPa
Press
MSL
hPa
Rain
since 9 am
mm
Dir
 
Spd
km/h
Gust
km/h
Spd
kts
Gust
kts
21/11:30pm 10.1 7.1 7.5 84 1.2 SW 13 17 7 9 - - 0.0
21/11:00pm 11.2 7.9 7.9 80 1.6 SW 15 20 8 11 - - 0.0
21/10:30pm 11.3 7.9 7.6 78 1.8 SW 15 20 8 11 - - 0.0
21/10:00pm 11.4 7.5 7.3 76 2.0 SSW 17 24 9 13 - - 0.0
21/09:30pm 11.5 8.0 7.4 76 2.0 SSW 15 19 8 10 - - 0.0
21/09:00pm 11.4 7.8 6.9 74 2.2 SW 15 19 8 10 - - 0.0
21/08:30pm 11.4 8.3 7.1 75 2.1 SW 13 19 7 10 - - 0.0
21/08:00pm 11.4 8.2 6.9 74 2.2 SW 13 20 7 11 - - 0.0
21/07:30pm 11.5 8.3 6.8 73 2.2 SW 13 19 7 10 - - 0.0
21/07:00pm 11.6 8.0 6.7 72 2.3 SW 15 20 8 11 - - 0.0
21/06:30pm 11.7 8.4 6.6 71 2.4 SW 13 20 7 11 - - 0.0
21/06:00pm 11.7 8.4 6.6 71 2.4 SW 13 22 7 12 - - 0.0
21/05:30pm 12.1 8.8 6.2 67 2.8 SW 13 17 7 9 - - 0.0
21/05:00pm 12.2 8.4 6.0 66 2.9 SSW 15 20 8 11 - - 0.0
21/04:30pm 12.3 7.8 5.9 65 3.0 SSW 19 24 10 13 - - 0.0
21/04:00pm 12.4 7.7 6.0 65 3.0 SSW 20 26 11 14 - - 0.0
21/03:30pm 12.2 7.6 6.3 67 2.8 SSW 20 28 11 15 - - 0.0
21/03:00pm 12.6 7.6 6.4 66 3.0 SSW 22 30 12 16 - - 0.0
21/02:30pm 12.5 7.5 6.5 67 2.9 SSW 22 28 12 15 - - 0.0
21/02:00pm 12.1 7.5 6.4 68 2.7 SSW 20 28 11 15 - - 0.0
21/01:30pm 12.2 7.3 6.7 69 2.6 S 22 33 12 18 - - 0.0
21/01:00pm 11.5 6.5 6.6 72 2.3 S 22 30 12 16 - - 0.0
21/12:30pm 11.7 7.1 6.6 71 2.4 S 20 28 11 15 - - 0.0
21/12:00pm 11.6 7.2 6.5 71 2.4 SSW 19 28 10 15 - - 0.0
21/11:30am 11.4 6.8 6.3 71 2.4 S 20 30 11 16 - - 0.0
21/11:00am 10.8 6.5 7.1 78 1.8 SSW 19 26 10 14 - - 0.0
21/10:30am 9.8 6.0 7.4 85 1.1 SSW 17 26 9 14 - - 0.0
21/10:00am 9.0 5.2 7.5 90 0.7 SSW 17 22 9 12 - - 0.0
21/09:30am 8.9 4.8 7.7 92 0.6 SSW 19 24 10 13 - - 0.0
21/09:00am 8.8 4.1 7.7 93 0.5 SSW 22 28 12 15 - - 0.2
21/08:30am 7.2 3.7 7.1 99 0.0 SSW 15 20 8 11 - - 0.2
21/08:00am 7.1 3.6 7.0 99 0.0 SSW 15 19 8 10 - - 0.2
21/07:30am 7.0 3.4 6.9 99 0.0 SSW 15 20 8 11 - - 0.2
21/07:00am 6.8 3.2 6.7 99 0.0 SSW 15 20 8 11 - - 0.2
21/06:30am 6.8 3.2 6.7 99 0.0 SSW 15 19 8 10 - - 0.2
21/06:00am 7.0 3.8 6.9 99 0.0 SSW 13 17 7 9 - - 0.2
21/05:30am 6.7 3.8 6.6 99 0.0 SSW 11 15 6 8 - - 0.2
21/05:00am 6.7 3.8 6.6 99 0.0 SSW 11 13 6 7 - - 0.2
21/04:30am 6.9 3.7 6.8 99 0.0 SSW 13 17 7 9 - - 0.2
21/04:00am 7.2 4.1 7.1 99 0.0 SSW 13 19 7 10 - - 0.2
21/03:30am 7.5 4.0 7.2 98 0.1 SSW 15 19 8 10 - - 0.2
21/03:00am 7.8 4.0 7.7 99 0.0 SSW 17 20 9 11 - - 0.2
21/02:30am 7.9 4.5 7.8 99 0.0 SSW 15 22 8 12 - - 0.2
21/02:00am 8.3 4.6 8.0 98 0.1 SSW 17 22 9 12 - - 0.2
21/01:30am 8.4 5.2 8.3 99 0.0 SSW 15 20 8 11 - - 0.2
21/01:00am 8.4 5.9 8.3 99 0.0 SSW 11 15 6 8 - - 0.2
21/12:30am 8.7 5.9 8.4 98 0.1 SSW 13 17 7 9 - - 0.2
21/12:00am 9.0 6.2 8.6 97 0.2 SSW 13 17 7 9 - - 0.2
 
Date/Time
EST
Temp
°C
App
Temp
°C
Dew
Point
Rel
Hum
%
Delta-T
°C
Wind Press
QNH
hPa
Press
MSL
hPa
Rain
since 9 am
mm
Dir
 
Spd
km/h
Gust
km/h
Spd
kts
Gust
kts
20/11:30pm 9.6 6.5 8.7 94 0.4 SSW 15 19 8 10 - - 0.2
20/11:00pm 10.2 6.7 8.6 90 0.8 SSW 17 22 9 12 - - 0.2
20/10:30pm 10.8 7.3 8.6 86 1.1 S 17 22 9 12 - - 0.2
20/10:00pm 11.4 8.2 9.8 90 0.8 SSW 17 22 9 12 - - 0.2
20/09:30pm 11.8 9.6 10.7 93 0.6 SW 13 19 7 10 - - 0.2
20/09:00pm 11.8 10.6 11.6 99 0.1 WSW 9 13 5 7 - - 0.2
20/08:30pm 12.0 10.8 11.5 97 0.3 W 9 13 5 7 - - 0.2
20/08:00pm 12.0 10.5 10.6 91 0.7 SW 9 13 5 7 - - 0.2
20/07:30pm 11.8 10.0 10.7 93 0.6 SW 11 17 6 9 - - 0.2
20/07:00pm 11.8 9.4 11.5 98 0.2 WSW 15 20 8 11 - - 0.2
20/06:30pm 11.9 9.5 11.4 97 0.3 WSW 15 20 8 11 - - 0.2
20/06:00pm 12.2 8.6 10.6 90 0.8 WSW 20 33 11 18 - - 0.0
20/05:30pm 12.9 8.7 9.9 82 1.5 WSW 22 37 12 20 - - 0.0
20/05:00pm 13.4 10.3 10.4 82 1.6 WSW 17 30 9 16 - - 0.0
20/04:30pm 14.8 10.5 9.2 69 2.9 W 22 32 12 17 - - 0.0
20/04:00pm 14.6 10.0 9.8 73 2.5 WNW 24 32 13 17 - - 0.0
20/03:30pm 15.2 11.6 9.8 70 2.8 W 19 28 10 15 - - 0.0
20/03:00pm 14.9 11.4 10.3 74 2.4 W 19 26 10 14 - - 0.0
20/02:30pm 14.8 10.3 10.2 74 2.4 WSW 24 33 13 18 - - 0.0
20/02:00pm 14.5 10.0 10.1 75 2.3 WSW 24 33 13 18 - - 0.0
20/01:30pm 14.8 9.8 9.6 71 2.7 W 26 44 14 24 - - 0.0
20/01:00pm 16.1 11.2 10.0 67 3.2 W 26 43 14 23 - - 0.0
20/12:30pm 15.6 10.5 9.3 66 3.3 W 26 37 14 20 - - 0.0
20/12:00pm 14.5 9.3 8.9 69 2.9 W 26 39 14 21 - - 0.0
20/11:30am 14.4 9.3 9.2 71 2.7 W 26 39 14 21 - - 0.0
20/11:00am 14.1 9.9 9.7 75 2.3 W 22 32 12 17 - - 0.0
20/10:30am 13.6 8.6 9.6 77 2.1 WSW 26 35 14 19 - - 0.0
20/10:00am 13.1 8.5 9.7 80 1.7 W 24 35 13 19 - - 0.0
20/09:30am 12.8 8.5 10.7 87 1.1 WSW 24 35 13 19 - - 0.0
20/09:00am 12.0 8.2 11.1 94 0.5 W 22 30 12 16 - - 1.2
20/08:30am 11.5 8.7 11.3 99 0.1 WNW 17 22 9 12 - - 1.2
20/08:00am 10.7 8.1 10.7 100 0.0 W 15 20 8 11 - - 1.2
20/07:30am 10.4 8.1 10.4 100 0.0 W 13 19 7 10 - - 1.0
20/07:00am 10.6 8.3 10.6 100 0.0 W 13 17 7 9 - - 1.0
20/06:30am 10.7 8.4 10.5 99 0.1 WNW 13 19 7 10 - - 1.0
20/06:00am 11.0 9.2 10.8 99 0.1 W 11 15 6 8 - - 1.0
20/05:30am 11.5 9.0 11.2 98 0.2 W 15 22 8 12 - - 1.0
20/05:00am 11.9 9.5 11.3 96 0.3 W 15 20 8 11 - - 1.0
20/04:30am 12.3 9.1 11.2 93 0.6 W 19 26 10 14 - - 1.0
20/04:00am 12.9 9.5 11.3 90 0.8 W 20 30 11 16 - - 1.0
20/03:30am 13.1 10.0 11.5 90 0.9 WNW 19 24 10 13 - - 1.0
20/03:00am 13.3 10.2 11.5 89 1.0 WNW 19 28 10 15 - - 1.0
20/02:30am 13.7 10.5 11.8 88 1.0 WNW 20 28 11 15 - - 1.0
20/02:00am 13.6 9.9 11.5 87 1.1 NW 22 28 12 15 - - 1.0
20/01:30am 13.8 10.7 11.5 86 1.2 NW 19 28 10 15 - - 1.0
20/01:00am 13.9 11.0 11.1 83 1.5 NW 17 24 9 13 - - 1.0
20/12:30am 14.4 11.2 11.2 81 1.7 NW 19 24 10 13 - - 1.0
20/12:00am 14.7 12.2 11.1 79 1.9 NW 15 20 8 11 - - 1.0
 
Date/Time
EST
Temp
°C
App
Temp
°C
Dew
Point
Rel
Hum
%
Delta-T
°C
Wind Press
QNH
hPa
Press
MSL
hPa
Rain
since 9 am
mm
Dir
 
Spd
km/h
Gust
km/h
Spd
kts
Gust
kts
19/11:30pm 15.2 12.3 11.0 76 2.2 NW 17 22 9 12 - - 1.0
19/11:00pm 15.3 12.0 10.9 75 2.3 NW 19 24 10 13 - - 1.0
19/10:30pm 15.8 12.3 11.0 73 2.6 NNW 20 24 11 13 - - 1.0
19/10:00pm 15.5 13.2 11.7 78 2.1 N 15 19 8 10 - - 1.0
19/09:30pm 15.3 12.7 12.1 81 1.7 N 17 24 9 13 - - 1.0
19/09:00pm 15.6 12.7 12.2 80 1.9 N 19 24 10 13 - - 1.0
19/08:30pm 15.6 12.8 12.5 82 1.7 N 19 22 10 12 - - 1.0

Other Formats:

Comma delimited format used in spreadsheet applications
http://www.bom.gov.au/fwo/IDV60801/IDV60801.95831.axf

JavaScript Object Notation format (JSON) in row-major order
http://www.bom.gov.au/fwo/IDV60801/IDV60801.95831.json